Cavern City Air Terminal
KCNM : now visible

Airfield :











YOU CAN JOIN US ON...

 
LOGIN :

Register | Disclaimer

   EN    FR    IT 

 









Legend :    VFR   Marginal VFR   IFR   Intensive IFR   Very Intensive IFR
Visi :
Ceiling :
>= 8 km
>= 3000ft
5 to 8 km
1000 to 3000 ft
1500m to 5 km
500 to 1000 ft
800 to 1500m
200 to 500 ft
< 800m
< 200 ft
Symbols :   Thunderstorms  Fog  Heavy snow  Heavy precipitations  Wind > 20 kt






- Airport Elevation : 3295 ft
- IATA code : CNM


KCNM - Cavern City Air Terminal

CURRENT METAR :
  • 070253Z AUTO 24007KT 10SM CLR 16/05 A3002 RMK AO2 SLP130 T01560050 51021

EXPIRED METARs :
  • 070153Z AUTO 26008KT 10SM CLR 15/05 A3000 RMK AO2 SLP125 T01500050
  • 070053Z AUTO 29010KT 10SM CLR 17/04 A2998 RMK AO2 SLP116 T01720039

TAF KCNM
Valid from the 07 at 00:00 until the 08 at 00:00 UTC


062323Z 0700/0724 25008KT P6SM BKN100 OVC200
FM071000 22005KT P6SM -SHRA OVC050
KZAB FIR / North America



MET'MAP, your aeronautical weather chart ! - Copyright ORBIFLY December 2007 - Disclaimer

ORBIFLY MET'MAP TEAM :

Programming & Development : Alexandra Zaïnal
Original concept : Baudouin d'Aumeries
Technical & hardware support : Manuel Goepfert
Assistance : Marc-Olivier Méhu




SOURCES & CREDITS :

   NOAA       Earth
Advisory